Brielle, New Jersey
Current Conditions -  °F | °C
As of 12:15 AM on Tuesday 23 Dec 2014 (Local Time) from KBLM Reporting Station
Overcast Overcast  
Wind Chill: 45°   Ceiling: 2500
Heat Index: 48°   Visibility: 9mi
Dew Point: 43°   Wind: 8mph
Humidity: 82%   Direction: 70°ENE
Pressure: 30.11"   Gusts: NA
Location:  40.11°N, 74.06°W
Report Text: KBLM 230515Z AUTO 07007KT 9SM FEW004 OVC025 09/06 A3011 RMK AO1
Loading
Personal Weather Stations






























Interactive Weather Map New forecast layout! Learn more

10-Day Weather Forecast

Advertisements
Track Severe Weather on mobile